METAR Data
IDs: Format: Raw Decoded Include TAF

Data at: 0125 UTC 14 May 2021

METAR for:KDCA (Washington/National, VA, US)
Text:KDCA 140052Z 34007KT 10SM SCT120 17/00 A3022 RMK AO2 SLP233 T01720000
Temperature: 17.2°C ( 63°F)
Dewpoint: 0.0°C ( 32°F) [RH = 31%]
Pressure (altimeter):30.22 inches Hg (1023.5 mb) [Sea level pressure: 1023.3 mb]
Winds:from the NNW (340 degrees) at 8 MPH (7 knots; 3.6 m/s)
Visibility:10 or more sm (16+ km)
Ceiling:at least 12,000 feet AGL
Clouds: scattered clouds at 12000 feet AGL

METAR for:KIAD (Washington/Dulles In, VA, US)
Text:KIAD 140052Z 00000KT 10SM FEW100 14/02 A3022 RMK AO2 SLP234 T01440022
Temperature: 14.4°C ( 58°F)
Dewpoint: 2.2°C ( 36°F) [RH = 44%]
Pressure (altimeter):30.22 inches Hg (1023.5 mb) [Sea level pressure: 1023.4 mb]
Winds:calm
Visibility:10 or more sm (16+ km)
Ceiling:at least 12,000 feet AGL
Clouds: few clouds at 10000 feet AGL

METAR for:KBWI (Baltimore-Washington, MD, US)
Text:KBWI 140054Z 00000KT 10SM SCT100 17/00 A3021 RMK AO2 SLP228 T01720000
Temperature: 17.2°C ( 63°F)
Dewpoint: 0.0°C ( 32°F) [RH = 31%]
Pressure (altimeter):30.21 inches Hg (1023.1 mb) [Sea level pressure: 1022.8 mb]
Winds:calm
Visibility:10 or more sm (16+ km)
Ceiling:at least 12,000 feet AGL
Clouds: scattered clouds at 10000 feet AGL

METAR for:KMTN (Baltimore/Martin Sta, MD, US)
Text:KMTN 140054Z 00000KT 10SM SCT120 15/03 A3022
Temperature: 15.0°C ( 59°F)
Dewpoint: 3.0°C ( 37°F) [RH = 44%]
Pressure (altimeter):30.22 inches Hg (1023.5 mb)
Winds:calm
Visibility:10 or more sm (16+ km)
Ceiling:at least 12,000 feet AGL
Clouds: scattered clouds at 12000 feet AGL

METAR for:KCHO (Charlottesville/Albe, VA, US)
Text:KCHO 140053Z 00000KT 10SM FEW110 15/00 A3023 RMK AO2 SLP232 T01500000
Temperature: 15.0°C ( 59°F)
Dewpoint: 0.0°C ( 32°F) [RH = 36%]
Pressure (altimeter):30.23 inches Hg (1023.8 mb) [Sea level pressure: 1023.2 mb]
Winds:calm
Visibility:10 or more sm (16+ km)
Ceiling:at least 12,000 feet AGL
Clouds: few clouds at 11000 feet AGL

METAR for:KMRB (Martinsburg/E West V, WV, US)
Text:KMRB 140053Z AUTO 00000KT 10SM CLR 12/01 A3022 RMK AO2 SLP234 T01220011
Temperature: 12.2°C ( 54°F)
Dewpoint: 1.1°C ( 34°F) [RH = 47%]
Pressure (altimeter):30.22 inches Hg (1023.5 mb) [Sea level pressure: 1023.4 mb]
Winds:calm
Visibility:10 or more sm (16+ km)
Ceiling:at least 12,000 feet AGL
Clouds:sky clear below 12,000 feet AGL
QC Flag:automated observation with no human augmentation